Back to Top

Language: 

My Weather Underground Personal Weather Station Historical Data with Graphs...

Delerius Weather Station Historical Data
Daily Summary for April 25, 2017 Units:  Both    English   Metric
« Previous Day
Next Day »
Daily Weekly Monthly Yearly Custom
  High: Low: Average:
Temperature: 49.3 °F /  9.6 °C 31.5 °F /  -0.3 °C 40.2 °F /  4.6 °C
Dew Point: 39.1 °F /  3.9 °C 26.0 °F /  -3.3 °C 31.6 °F /  -0.2 °C
Humidity: 83 % 54 % 72 %
Wind Speed: 12.0 mph /  19.3 km/h - 6.5 mph /  10.5 km/h
Wind Gust: 26.0 mph /  41.8 km/h - -
Wind:- - WNW
Pressure: 30.05 in /  1017.5 hPa 29.87 in /  1011.4 hPa -
Precipitation: 0.02 in /  0.51 mm    
Historical Graphs
 
 
Tabular Data for April 25, 2017
Time Temperature Dew Point Pressure Wind Wind Speed Wind Gust Humidity Rainfall Rate (Hourly) solar Conditions
00:04 35.8 °F /  2.1 °C 29.0 °F /  -1.7 °C 29.90 in /  1012.4 hPa WNW 6.0 mph /  9.7 km/h 13.0 mph /  20.9 km/h 76 % 0.00 in /  0 mm 0 W/m2
00:09 35.8 °F /  2.1 °C 29.0 °F /  -1.7 °C 29.90 in /  1012.4 hPa WNW 5.0 mph /  8 km/h 10.0 mph /  16.1 km/h 76 % 0.00 in /  0 mm 0 W/m2
00:14 35.6 °F /  2 °C 28.8 °F /  -1.8 °C 29.90 in /  1012.4 hPa WNW 4.0 mph /  6.4 km/h 10.0 mph /  16.1 km/h 76 % 0.00 in /  0 mm 0 W/m2
00:19 35.4 °F /  1.9 °C 28.6 °F /  -1.9 °C 29.90 in /  1012.4 hPa WNW 4.0 mph /  6.4 km/h 9.0 mph /  14.5 km/h 76 % 0.00 in /  0 mm 0 W/m2
00:24 35.4 °F /  1.9 °C 28.6 °F /  -1.9 °C 29.89 in /  1012.1 hPa WNW 5.0 mph /  8 km/h 10.0 mph /  16.1 km/h 76 % 0.00 in /  0 mm 0 W/m2
00:29 35.2 °F /  1.8 °C 28.4 °F /  -2 °C 29.89 in /  1012.1 hPa WNW 6.0 mph /  9.7 km/h 10.0 mph /  16.1 km/h 76 % 0.00 in /  0 mm 0 W/m2
00:34 35.2 °F /  1.8 °C 28.4 °F /  -2 °C 29.89 in /  1012.1 hPa WNW 5.0 mph /  8 km/h 10.0 mph /  16.1 km/h 76 % 0.00 in /  0 mm 0 W/m2
00:39 35.1 °F /  1.7 °C 28.3 °F /  -2.1 °C 29.89 in /  1012.1 hPa WNW 5.0 mph /  8 km/h 9.0 mph /  14.5 km/h 76 % 0.00 in /  0 mm 0 W/m2
00:44 35.1 °F /  1.7 °C 28.3 °F /  -2.1 °C 29.89 in /  1012.1 hPa WNW 5.0 mph /  8 km/h 9.0 mph /  14.5 km/h 76 % 0.00 in /  0 mm 0 W/m2
00:49 34.9 °F /  1.6 °C 28.1 °F /  -2.2 °C 29.89 in /  1012.1 hPa WNW 5.0 mph /  8 km/h 9.0 mph /  14.5 km/h 76 % 0.00 in /  0 mm 0 W/m2
00:54 34.5 °F /  1.4 °C 28.1 °F /  -2.2 °C 29.89 in /  1012.1 hPa West 5.0 mph /  8 km/h 10.0 mph /  16.1 km/h 77 % 0.00 in /  0 mm 0 W/m2
00:59 34.3 °F /  1.3 °C 27.9 °F /  -2.3 °C 29.88 in /  1011.7 hPa WNW 5.0 mph /  8 km/h 10.0 mph /  16.1 km/h 77 % 0.00 in /  0 mm 0 W/m2
01:04 34.3 °F /  1.3 °C 27.9 °F /  -2.3 °C 29.88 in /  1011.7 hPa WNW 4.0 mph /  6.4 km/h 9.0 mph /  14.5 km/h 77 % 0.00 in /  0 mm 0 W/m2
01:09 34.2 °F /  1.2 °C 27.7 °F /  -2.4 °C 29.88 in /  1011.7 hPa WNW 4.0 mph /  6.4 km/h 9.0 mph /  14.5 km/h 77 % 0.00 in /  0 mm 0 W/m2
01:14 34.2 °F /  1.2 °C 27.7 °F /  -2.4 °C 29.88 in /  1011.7 hPa WNW 4.0 mph /  6.4 km/h 10.0 mph /  16.1 km/h 77 % 0.00 in /  0 mm 0 W/m2
01:19 34.2 °F /  1.2 °C 27.7 °F /  -2.4 °C 29.88 in /  1011.7 hPa WNW 5.0 mph /  8 km/h 10.0 mph /  16.1 km/h 77 % 0.00 in /  0 mm 0 W/m2
01:24 34.2 °F /  1.2 °C 27.4 °F /  -2.6 °C 29.88 in /  1011.7 hPa WNW 6.0 mph /  9.7 km/h 13.0 mph /  20.9 km/h 76 % 0.00 in /  0 mm 0 W/m2
01:29 34.3 °F /  1.3 °C 27.6 °F /  -2.4 °C 29.88 in /  1011.7 hPa WNW 6.0 mph /  9.7 km/h 13.0 mph /  20.9 km/h 76 % 0.00 in /  0 mm 0 W/m2
01:34 34.3 °F /  1.3 °C 27.2 °F /  -2.7 °C 29.88 in /  1011.7 hPa WNW 7.0 mph /  11.3 km/h 12.0 mph /  19.3 km/h 75 % 0.00 in /  0 mm 0 W/m2
01:39 34.3 °F /  1.3 °C 27.2 °F /  -2.7 °C 29.88 in /  1011.7 hPa WNW 7.0 mph /  11.3 km/h 12.0 mph /  19.3 km/h 75 % 0.00 in /  0 mm 0 W/m2
01:44 34.3 °F /  1.3 °C 27.2 °F /  -2.7 °C 29.88 in /  1011.7 hPa WNW 7.0 mph /  11.3 km/h 12.0 mph /  19.3 km/h 75 % 0.00 in /  0 mm 0 W/m2
01:49 34.3 °F /  1.3 °C 26.9 °F /  -2.8 °C 29.87 in /  1011.4 hPa WNW 7.0 mph /  11.3 km/h 11.0 mph /  17.7 km/h 74 % 0.00 in /  0 mm 0 W/m2
01:54 34.3 °F /  1.3 °C 26.9 °F /  -2.8 °C 29.87 in /  1011.4 hPa WNW 7.0 mph /  11.3 km/h 11.0 mph /  17.7 km/h 74 % 0.00 in /  0 mm 0 W/m2
01:59 34.2 °F /  1.2 °C 26.7 °F /  -2.9 °C 29.87 in /  1011.4 hPa WNW 7.0 mph /  11.3 km/h 10.0 mph /  16.1 km/h 74 % 0.00 in /  0 mm 0 W/m2
02:04 34.2 °F /  1.2 °C 26.7 °F /  -2.9 °C 29.87 in /  1011.4 hPa WNW 6.0 mph /  9.7 km/h 11.0 mph /  17.7 km/h 74 % 0.00 in /  0 mm 0 W/m2
02:09 34.0 °F /  1.1 °C 26.6 °F /  -3 °C 29.87 in /  1011.4 hPa WNW 6.0 mph /  9.7 km/h 11.0 mph /  17.7 km/h 74 % 0.00 in /  0 mm 0 W/m2
02:14 34.0 °F /  1.1 °C 26.6 °F /  -3 °C 29.87 in /  1011.4 hPa WNW 7.0 mph /  11.3 km/h 11.0 mph /  17.7 km/h 74 % 0.00 in /  0 mm 0 W/m2
02:25 33.6 °F /  0.9 °C 26.5 °F /  -3.1 °C 29.87 in /  1011.4 hPa WNW 6.0 mph /  9.7 km/h 10.0 mph /  16.1 km/h 75 % 0.00 in /  0 mm 0 W/m2
02:30 33.4 °F /  0.8 °C 26.4 °F /  -3.1 °C 29.87 in /  1011.4 hPa WNW 6.0 mph /  9.7 km/h 10.0 mph /  16.1 km/h 75 % 0.00 in /  0 mm 0 W/m2
02:33 33.4 °F /  0.8 °C 26.4 °F /  -3.1 °C 29.87 in /  1011.4 hPa WNW 6.0 mph /  9.7 km/h 10.0 mph /  16.1 km/h 75 % 0.00 in /  0 mm 0 W/m2
02:38 33.4 °F /  0.8 °C 26.4 °F /  -3.1 °C 29.87 in /  1011.4 hPa NW 6.0 mph /  9.7 km/h 12.0 mph /  19.3 km/h 75 % 0.00 in /  0 mm 0 W/m2
02:43 33.4 °F /  0.8 °C 26.4 °F /  -3.1 °C 29.87 in /  1011.4 hPa NW 7.0 mph /  11.3 km/h 12.0 mph /  19.3 km/h 75 % 0.00 in /  0 mm 0 W/m2
02:48 33.6 °F /  0.9 °C 26.5 °F /  -3.1 °C 29.87 in /  1011.4 hPa NW 7.0 mph /  11.3 km/h 12.0 mph /  19.3 km/h 75 % 0.00 in /  0 mm 0 W/m2
02:53 33.6 °F /  0.9 °C 26.2 °F /  -3.2 °C 29.88 in /  1011.7 hPa NW 6.0 mph /  9.7 km/h 12.0 mph /  19.3 km/h 74 % 0.00 in /  0 mm 0 W/m2
02:58 33.8 °F /  1 °C 26.4 °F /  -3.1 °C 29.88 in /  1011.7 hPa NW 6.0 mph /  9.7 km/h 11.0 mph /  17.7 km/h 74 % 0.00 in /  0 mm 0 W/m2
03:03 34.0 °F /  1.1 °C 26.2 °F /  -3.2 °C 29.88 in /  1011.7 hPa NW 6.0 mph /  9.7 km/h 11.0 mph /  17.7 km/h 73 % 0.00 in /  0 mm 0 W/m2
03:08 34.0 °F /  1.1 °C 26.2 °F /  -3.2 °C 29.88 in /  1011.7 hPa NW 6.0 mph /  9.7 km/h 10.0 mph /  16.1 km/h 73 % 0.00 in /  0 mm 0 W/m2
03:13 34.0 °F /  1.1 °C 26.2 °F /  -3.2 °C 29.88 in /  1011.7 hPa NW 6.0 mph /  9.7 km/h 12.0 mph /  19.3 km/h 73 % 0.00 in /  0 mm 0 W/m2
03:18 34.0 °F /  1.1 °C 26.6 °F /  -3 °C 29.88 in /  1011.7 hPa NW 5.0 mph /  8 km/h 12.0 mph /  19.3 km/h 74 % 0.00 in /  0 mm 0 W/m2
03:23 33.8 °F /  1 °C 26.4 °F /  -3.1 °C 29.88 in /  1011.7 hPa WNW 5.0 mph /  8 km/h 10.0 mph /  16.1 km/h 74 % 0.00 in /  0 mm 0 W/m2
03:28 33.6 °F /  0.9 °C 26.2 °F /  -3.2 °C 29.88 in /  1011.7 hPa NW 4.0 mph /  6.4 km/h 9.0 mph /  14.5 km/h 74 % 0.00 in /  0 mm 0 W/m2
03:33 33.6 °F /  0.9 °C 26.2 °F /  -3.2 °C 29.88 in /  1011.7 hPa NW 3.0 mph /  4.8 km/h 9.0 mph /  14.5 km/h 74 % 0.00 in /  0 mm 0 W/m2
03:38 33.4 °F /  0.8 °C 26.0 °F /  -3.3 °C 29.88 in /  1011.7 hPa NW 4.0 mph /  6.4 km/h 8.0 mph /  12.9 km/h 74 % 0.00 in /  0 mm 0 W/m2
03:43 33.4 °F /  0.8 °C 26.4 °F /  -3.1 °C 29.88 in /  1011.7 hPa NW 4.0 mph /  6.4 km/h 8.0 mph /  12.9 km/h 75 % 0.00 in /  0 mm 0 W/m2
03:48 33.3 °F /  0.7 °C 26.2 °F /  -3.2 °C 29.88 in /  1011.7 hPa NW 3.0 mph /  4.8 km/h 8.0 mph /  12.9 km/h 75 % 0.00 in /  0 mm 0 W/m2
03:53 33.1 °F /  0.6 °C 26.0 °F /  -3.3 °C 29.89 in /  1012.1 hPa NW 3.0 mph /  4.8 km/h 7.0 mph /  11.3 km/h 75 % 0.00 in /  0 mm 0 W/m2
03:58 33.1 °F /  0.6 °C 26.3 °F /  -3.2 °C 29.88 in /  1011.7 hPa NW 3.0 mph /  4.8 km/h 7.0 mph /  11.3 km/h 76 % 0.00 in /  0 mm 0 W/m2
04:03 32.9 °F /  0.5 °C 26.2 °F /  -3.2 °C 29.89 in /  1012.1 hPa NW 3.0 mph /  4.8 km/h 7.0 mph /  11.3 km/h 76 % 0.00 in /  0 mm 0 W/m2
04:08 32.7 °F /  0.4 °C 26.0 °F /  -3.3 °C 29.89 in /  1012.1 hPa NW 4.0 mph /  6.4 km/h 10.0 mph /  16.1 km/h 76 % 0.00 in /  0 mm 0 W/m2
04:13 32.7 °F /  0.4 °C 26.3 °F /  -3.2 °C 29.89 in /  1012.1 hPa NW 4.0 mph /  6.4 km/h 10.0 mph /  16.1 km/h 77 % 0.00 in /  0 mm 0 W/m2
04:18 32.7 °F /  0.4 °C 26.3 °F /  -3.2 °C 29.89 in /  1012.1 hPa NW 4.0 mph /  6.4 km/h 8.0 mph /  12.9 km/h 77 % 0.00 in /  0 mm 0 W/m2
04:23 32.7 °F /  0.4 °C 26.3 °F /  -3.2 °C 29.89 in /  1012.1 hPa WNW 3.0 mph /  4.8 km/h 8.0 mph /  12.9 km/h 77 % 0.00 in /  0 mm 0 W/m2
04:28 32.5 °F /  0.3 °C 26.1 °F /  -3.3 °C 29.89 in /  1012.1 hPa NW 2.0 mph /  3.2 km/h 7.0 mph /  11.3 km/h 77 % 0.00 in /  0 mm 0 W/m2
04:33 32.5 °F /  0.3 °C 26.4 °F /  -3.1 °C 29.89 in /  1012.1 hPa WNW 3.0 mph /  4.8 km/h 7.0 mph /  11.3 km/h 78 % 0.00 in /  0 mm 0 W/m2
04:38 32.4 °F /  0.2 °C 26.3 °F /  -3.2 °C 29.89 in /  1012.1 hPa WNW 3.0 mph /  4.8 km/h 6.0 mph /  9.7 km/h 78 % 0.00 in /  0 mm 0 W/m2
04:43 32.4 °F /  0.2 °C 26.3 °F /  -3.2 °C 29.89 in /  1012.1 hPa WNW 3.0 mph /  4.8 km/h 7.0 mph /  11.3 km/h 78 % 0.00 in /  0 mm 0 W/m2
04:48 32.2 °F /  0.1 °C 26.4 °F /  -3.1 °C 29.89 in /  1012.1 hPa NW 3.0 mph /  4.8 km/h 7.0 mph /  11.3 km/h 79 % 0.00 in /  0 mm 0 W/m2
04:53 32.2 °F /  0.1 °C 26.4 °F /  -3.1 °C 29.89 in /  1012.1 hPa NW 4.0 mph /  6.4 km/h 7.0 mph /  11.3 km/h 79 % 0.00 in /  0 mm 0 W/m2
04:58 32.2 °F /  0.1 °C 26.4 °F /  -3.1 °C 29.90 in /  1012.4 hPa NW 5.0 mph /  8 km/h 8.0 mph /  12.9 km/h 79 % 0.00 in /  0 mm 0 W/m2
05:03 32.2 °F /  0.1 °C 26.4 °F /  -3.1 °C 29.89 in /  1012.1 hPa NW 5.0 mph /  8 km/h 8.0 mph /  12.9 km/h 79 % 0.00 in /  0 mm 0 W/m2
05:08 32.2 °F /  0.1 °C 26.4 °F /  -3.1 °C 29.90 in /  1012.4 hPa NW 5.0 mph /  8 km/h 9.0 mph /  14.5 km/h 79 % 0.00 in /  0 mm 0 W/m2
05:13 32.2 °F /  0.1 °C 26.4 °F /  -3.1 °C 29.90 in /  1012.4 hPa NW 5.0 mph /  8 km/h 9.0 mph /  14.5 km/h 79 % 0.00 in /  0 mm 0 W/m2
05:18 32.2 °F /  0.1 °C 26.4 °F /  -3.1 °C 29.90 in /  1012.4 hPa NW 5.0 mph /  8 km/h 9.0 mph /  14.5 km/h 79 % 0.00 in /  0 mm 0 W/m2
05:23 32.2 °F /  0.1 °C 26.7 °F /  -2.9 °C 29.90 in /  1012.4 hPa NW 5.0 mph /  8 km/h 9.0 mph /  14.5 km/h 80 % 0.00 in /  0 mm 0 W/m2
05:28 32.2 °F /  0.1 °C 26.7 °F /  -2.9 °C 29.90 in /  1012.4 hPa WNW 5.0 mph /  8 km/h 9.0 mph /  14.5 km/h 80 % 0.00 in /  0 mm 0 W/m2
05:33 32.0 °F /  0 °C 26.5 °F /  -3.1 °C 29.90 in /  1012.4 hPa NW 4.0 mph /  6.4 km/h 8.0 mph /  12.9 km/h 80 % 0.00 in /  0 mm 0 W/m2
05:38 32.0 °F /  0 °C 26.5 °F /  -3.1 °C 29.91 in /  1012.8 hPa NW 4.0 mph /  6.4 km/h 8.0 mph /  12.9 km/h 80 % 0.00 in /  0 mm 0 W/m2
05:43 32.0 °F /  0 °C 26.5 °F /  -3.1 °C 29.91 in /  1012.8 hPa NW 4.0 mph /  6.4 km/h 8.0 mph /  12.9 km/h 80 % 0.00 in /  0 mm 5 W/m2
05:48 32.0 °F /  0 °C 26.5 °F /  -3.1 °C 29.91 in /  1012.8 hPa WNW 3.0 mph /  4.8 km/h 8.0 mph /  12.9 km/h 80 % 0.00 in /  0 mm 5 W/m2
05:54 31.8 °F /  -0.1 °C 26.4 °F /  -3.1 °C 29.91 in /  1012.8 hPa WNW 3.0 mph /  4.8 km/h 8.0 mph /  12.9 km/h 80 % 0.00 in /  0 mm 7 W/m2
05:59 31.8 °F /  -0.1 °C 26.4 °F /  -3.1 °C 29.91 in /  1012.8 hPa WNW 3.0 mph /  4.8 km/h 8.0 mph /  12.9 km/h 80 % 0.00 in /  0 mm 9 W/m2
06:04 31.6 °F /  -0.2 °C 26.2 °F /  -3.2 °C 29.92 in /  1013.1 hPa WNW 1.0 mph /  1.6 km/h 5.0 mph /  8 km/h 80 % 0.00 in /  0 mm 12 W/m2
06:09 31.6 °F /  -0.2 °C 26.2 °F /  -3.2 °C 29.92 in /  1013.1 hPa WNW 2.0 mph /  3.2 km/h 5.0 mph /  8 km/h 80 % 0.00 in /  0 mm 14 W/m2
06:14 31.5 °F /  -0.3 °C 26.3 °F /  -3.2 °C 29.92 in /  1013.1 hPa WNW 3.0 mph /  4.8 km/h 6.0 mph /  9.7 km/h 81 % 0.00 in /  0 mm 16 W/m2
06:19 31.5 °F /  -0.3 °C 26.3 °F /  -3.2 °C 29.92 in /  1013.1 hPa WNW 4.0 mph /  6.4 km/h 8.0 mph /  12.9 km/h 81 % 0.00 in /  0 mm 23 W/m2
06:24 31.6 °F /  -0.2 °C 26.8 °F /  -2.9 °C 29.92 in /  1013.1 hPa WNW 3.0 mph /  4.8 km/h 8.0 mph /  12.9 km/h 82 % 0.00 in /  0 mm 19 W/m2
06:29 31.6 °F /  -0.2 °C 26.8 °F /  -2.9 °C 29.92 in /  1013.1 hPa WNW 3.0 mph /  4.8 km/h 6.0 mph /  9.7 km/h 82 % 0.00 in /  0 mm 19 W/m2
06:34 31.6 °F /  -0.2 °C 26.8 °F /  -2.9 °C 29.92 in /  1013.1 hPa WNW 3.0 mph /  4.8 km/h 6.0 mph /  9.7 km/h 82 % 0.00 in /  0 mm 77 W/m2
06:39 31.8 °F /  -0.1 °C 27.0 °F /  -2.8 °C 29.92 in /  1013.1 hPa WNW 4.0 mph /  6.4 km/h 8.0 mph /  12.9 km/h 82 % 0.00 in /  0 mm 23 W/m2
06:44 32.2 °F /  0.1 °C 27.0 °F /  -2.8 °C 29.92 in /  1013.1 hPa WNW 4.0 mph /  6.4 km/h 11.0 mph /  17.7 km/h 81 % 0.00 in /  0 mm 23 W/m2
06:49 32.4 °F /  0.2 °C 27.2 °F /  -2.7 °C 29.92 in /  1013.1 hPa WNW 5.0 mph /  8 km/h 11.0 mph /  17.7 km/h 81 % 0.00 in /  0 mm 25 W/m2
06:54 32.7 °F /  0.4 °C 27.5 °F /  -2.5 °C 29.92 in /  1013.1 hPa WNW 7.0 mph /  11.3 km/h 12.0 mph /  19.3 km/h 81 % 0.00 in /  0 mm 33 W/m2
06:59 33.1 °F /  0.6 °C 27.6 °F /  -2.4 °C 29.92 in /  1013.1 hPa WNW 7.0 mph /  11.3 km/h 13.0 mph /  20.9 km/h 80 % 0.00 in /  0 mm 35 W/m2
07:04 33.3 °F /  0.7 °C 27.8 °F /  -2.3 °C 29.92 in /  1013.1 hPa WNW 7.0 mph /  11.3 km/h 13.0 mph /  20.9 km/h 80 % 0.00 in /  0 mm 42 W/m2
07:09 33.6 °F /  0.9 °C 27.8 °F /  -2.3 °C 29.92 in /  1013.1 hPa WNW 7.0 mph /  11.3 km/h 13.0 mph /  20.9 km/h 79 % 0.00 in /  0 mm 139 W/m2
07:14 34.3 °F /  1.3 °C 28.5 °F /  -1.9 °C 29.92 in /  1013.1 hPa WNW 8.0 mph /  12.9 km/h 13.0 mph /  20.9 km/h 79 % 0.00 in /  0 mm 185 W/m2
07:19 35.1 °F /  1.7 °C 28.9 °F /  -1.7 °C 29.92 in /  1013.1 hPa WNW 7.0 mph /  11.3 km/h 13.0 mph /  20.9 km/h 78 % 0.00 in /  0 mm 199 W/m2
07:24 35.8 °F /  2.1 °C 29.0 °F /  -1.7 °C 29.93 in /  1013.4 hPa NW 7.0 mph /  11.3 km/h 13.0 mph /  20.9 km/h 76 % 0.00 in /  0 mm 213 W/m2
07:29 36.3 °F /  2.4 °C 29.2 °F /  -1.6 °C 29.92 in /  1013.1 hPa NW 7.0 mph /  11.3 km/h 13.0 mph /  20.9 km/h 75 % 0.00 in /  0 mm 229 W/m2
07:34 36.9 °F /  2.7 °C 29.3 °F /  -1.5 °C 29.93 in /  1013.4 hPa NW 6.0 mph /  9.7 km/h 12.0 mph /  19.3 km/h 74 % 0.00 in /  0 mm 241 W/m2
07:39 37.2 °F /  2.9 °C 29.0 °F /  -1.7 °C 29.92 in /  1013.1 hPa WNW 7.0 mph /  11.3 km/h 13.0 mph /  20.9 km/h 72 % 0.00 in /  0 mm 257 W/m2
07:44 37.6 °F /  3.1 °C 29.0 °F /  -1.7 °C 29.93 in /  1013.4 hPa WNW 8.0 mph /  12.9 km/h 15.0 mph /  24.1 km/h 71 % 0.00 in /  0 mm 269 W/m2
07:49 37.9 °F /  3.3 °C 29.0 °F /  -1.7 °C 29.93 in /  1013.4 hPa NW 8.0 mph /  12.9 km/h 15.0 mph /  24.1 km/h 70 % 0.00 in /  0 mm 287 W/m2
07:54 38.5 °F /  3.6 °C 29.2 °F /  -1.6 °C 29.93 in /  1013.4 hPa NW 7.0 mph /  11.3 km/h 14.0 mph /  22.5 km/h 69 % 0.00 in /  0 mm 299 W/m2
07:59 38.8 °F /  3.8 °C 29.2 °F /  -1.6 °C 29.92 in /  1013.1 hPa NW 7.0 mph /  11.3 km/h 14.0 mph /  22.5 km/h 68 % 0.00 in /  0 mm 313 W/m2
08:04 39.4 °F /  4.1 °C 29.3 °F /  -1.5 °C 29.93 in /  1013.4 hPa NW 6.0 mph /  9.7 km/h 13.0 mph /  20.9 km/h 67 % 0.00 in /  0 mm 325 W/m2
08:09 39.6 °F /  4.2 °C 29.1 °F /  -1.6 °C 29.93 in /  1013.4 hPa NW 6.0 mph /  9.7 km/h 13.0 mph /  20.9 km/h 66 % 0.00 in /  0 mm 343 W/m2
08:14 39.6 °F /  4.2 °C 28.8 °F /  -1.8 °C 29.93 in /  1013.4 hPa WNW 7.0 mph /  11.3 km/h 14.0 mph /  22.5 km/h 65 % 0.00 in /  0 mm 359 W/m2
08:19 39.9 °F /  4.4 °C 29.1 °F /  -1.6 °C 29.93 in /  1013.4 hPa WNW 8.0 mph /  12.9 km/h 14.0 mph /  22.5 km/h 65 % 0.00 in /  0 mm 369 W/m2
08:24 40.3 °F /  4.6 °C 29.1 °F /  -1.6 °C 29.93 in /  1013.4 hPa WNW 8.0 mph /  12.9 km/h 16.0 mph /  25.7 km/h 64 % 0.00 in /  0 mm 383 W/m2
08:30 40.6 °F /  4.8 °C 29.4 °F /  -1.4 °C 29.94 in /  1013.8 hPa WNW 9.0 mph /  14.5 km/h 16.0 mph /  25.7 km/h 64 % 0.00 in /  0 mm 397 W/m2
08:34 41.0 °F /  5 °C 29.4 °F /  -1.4 °C 29.94 in /  1013.8 hPa NW 8.0 mph /  12.9 km/h 18.0 mph /  29 km/h 63 % 0.00 in /  0 mm 269 W/m2
08:40 41.2 °F /  5.1 °C 29.1 °F /  -1.6 °C 29.94 in /  1013.8 hPa WNW 9.0 mph /  14.5 km/h 18.0 mph /  29 km/h 62 % 0.00 in /  0 mm 390 W/m2
08:45 41.4 °F /  5.2 °C 29.7 °F /  -1.3 °C 29.94 in /  1013.8 hPa WNW 9.0 mph /  14.5 km/h 19.0 mph /  30.6 km/h 63 % 0.00 in /  0 mm 448 W/m2
08:50 41.7 °F /  5.4 °C 29.6 °F /  -1.3 °C 29.94 in /  1013.8 hPa NW 10.0 mph /  16.1 km/h 20.0 mph /  32.2 km/h 62 % 0.00 in /  0 mm 489 W/m2
08:55 42.1 °F /  5.6 °C 30.0 °F /  -1.1 °C 29.94 in /  1013.8 hPa NW 11.0 mph /  17.7 km/h 20.0 mph /  32.2 km/h 62 % 0.00 in /  0 mm 429 W/m2
09:00 42.3 °F /  5.7 °C 30.2 °F /  -1 °C 29.93 in /  1013.4 hPa WNW 9.0 mph /  14.5 km/h 18.0 mph /  29 km/h 62 % 0.00 in /  0 mm 227 W/m2
09:10 42.8 °F /  6 °C 30.7 °F /  -0.7 °C 29.94 in /  1013.8 hPa NW 7.0 mph /  11.3 km/h 15.0 mph /  24.1 km/h 62 % 0.00 in /  0 mm 517 W/m2
09:15 43.2 °F /  6.2 °C 31.0 °F /  -0.6 °C 29.94 in /  1013.8 hPa NW 9.0 mph /  14.5 km/h 19.0 mph /  30.6 km/h 62 % 0.00 in /  0 mm 520 W/m2
09:20 43.5 °F /  6.4 °C 31.4 °F /  -0.3 °C 29.94 in /  1013.8 hPa NW 9.0 mph /  14.5 km/h 19.0 mph /  30.6 km/h 62 % 0.00 in /  0 mm 529 W/m2
09:25 44.1 °F /  6.7 °C 31.5 °F /  -0.3 °C 29.94 in /  1013.8 hPa NW 8.0 mph /  12.9 km/h 19.0 mph /  30.6 km/h 61 % 0.00 in /  0 mm 550 W/m2
09:30 44.2 °F /  6.8 °C 31.2 °F /  -0.4 °C 29.94 in /  1013.8 hPa NW 8.0 mph /  12.9 km/h 16.0 mph /  25.7 km/h 60 % 0.00 in /  0 mm 550 W/m2
09:35 44.8 °F /  7.1 °C 31.3 °F /  -0.4 °C 29.94 in /  1013.8 hPa NW 9.0 mph /  14.5 km/h 16.0 mph /  25.7 km/h 59 % 0.00 in /  0 mm 571 W/m2
09:40 45.0 °F /  7.2 °C 31.9 °F /  -0.1 °C 29.94 in /  1013.8 hPa NW 9.0 mph /  14.5 km/h 18.0 mph /  29 km/h 60 % 0.00 in /  0 mm 582 W/m2
09:45 45.1 °F /  7.3 °C 31.7 °F /  -0.2 °C 29.93 in /  1013.4 hPa NW 9.0 mph /  14.5 km/h 20.0 mph /  32.2 km/h 59 % 0.00 in /  0 mm 622 W/m2
09:50 45.0 °F /  7.2 °C 31.1 °F /  -0.5 °C 29.93 in /  1013.4 hPa NNW 10.0 mph /  16.1 km/h 22.0 mph /  35.4 km/h 58 % 0.00 in /  0 mm 610 W/m2
09:55 45.0 °F /  7.2 °C 31.1 °F /  -0.5 °C 29.93 in /  1013.4 hPa NNW 11.0 mph /  17.7 km/h 22.0 mph /  35.4 km/h 58 % 0.00 in /  0 mm 619 W/m2
10:00 45.1 °F /  7.3 °C 31.7 °F /  -0.2 °C 29.93 in /  1013.4 hPa NW 11.0 mph /  17.7 km/h 20.0 mph /  32.2 km/h 59 % 0.00 in /  0 mm 633 W/m2
10:05 45.7 °F /  7.6 °C 32.2 °F /  0.1 °C 29.94 in /  1013.8 hPa NW 10.0 mph /  16.1 km/h 21.0 mph /  33.8 km/h 59 % 0.00 in /  0 mm 657 W/m2
10:10 46.0 °F /  7.8 °C 31.6 °F /  -0.2 °C 29.94 in /  1013.8 hPa NW 10.0 mph /  16.1 km/h 21.0 mph /  33.8 km/h 57 % 0.00 in /  0 mm 693 W/m2
10:15 46.0 °F /  7.8 °C 30.8 °F /  -0.7 °C 29.93 in /  1013.4 hPa NW 12.0 mph /  19.3 km/h 23.0 mph /  37 km/h 55 % 0.00 in /  0 mm 675 W/m2
10:20 46.0 °F /  7.8 °C 30.8 °F /  -0.7 °C 29.93 in /  1013.4 hPa NW 12.0 mph /  19.3 km/h 23.0 mph /  37 km/h 55 % 0.00 in /  0 mm 722 W/m2
10:25 46.2 °F /  7.9 °C 31.4 °F /  -0.3 °C 29.93 in /  1013.4 hPa NW 12.0 mph /  19.3 km/h 23.0 mph /  37 km/h 56 % 0.00 in /  0 mm 759 W/m2
10:30 46.6 °F /  8.1 °C 31.3 °F /  -0.4 °C 29.94 in /  1013.8 hPa NW 11.0 mph /  17.7 km/h 23.0 mph /  37 km/h 55 % 0.00 in /  0 mm 299 W/m2
10:35 46.6 °F /  8.1 °C 31.3 °F /  -0.4 °C 29.94 in /  1013.8 hPa WNW 10.0 mph /  16.1 km/h 22.0 mph /  35.4 km/h 55 % 0.00 in /  0 mm 272 W/m2
10:40 46.0 °F /  7.8 °C 30.8 °F /  -0.7 °C 29.94 in /  1013.8 hPa WNW 10.0 mph /  16.1 km/h 22.0 mph /  35.4 km/h 55 % 0.00 in /  0 mm 383 W/m2
10:45 46.0 °F /  7.8 °C 31.2 °F /  -0.4 °C 29.94 in /  1013.8 hPa NW 9.0 mph /  14.5 km/h 20.0 mph /  32.2 km/h 56 % 0.00 in /  0 mm 241 W/m2
10:50 45.7 °F /  7.6 °C 30.9 °F /  -0.6 °C 29.94 in /  1013.8 hPa NW 10.0 mph /  16.1 km/h 22.0 mph /  35.4 km/h 56 % 0.00 in /  0 mm 295 W/m2
10:55 45.3 °F /  7.4 °C 30.5 °F /  -0.8 °C 29.94 in /  1013.8 hPa NW 11.0 mph /  17.7 km/h 23.0 mph /  37 km/h 56 % 0.00 in /  0 mm 209 W/m2
11:00 45.1 °F /  7.3 °C 31.2 °F /  -0.4 °C 29.94 in /  1013.8 hPa NW 11.0 mph /  17.7 km/h 23.0 mph /  37 km/h 58 % 0.00 in /  0 mm 253 W/m2
11:05 45.0 °F /  7.2 °C 30.6 °F /  -0.8 °C 29.94 in /  1013.8 hPa NW 12.0 mph /  19.3 km/h 23.0 mph /  37 km/h 57 % 0.00 in /  0 mm 202 W/m2
11:11 44.8 °F /  7.1 °C 30.9 °F /  -0.6 °C 29.95 in /  1014.1 hPa NW 11.0 mph /  17.7 km/h 23.0 mph /  37 km/h 58 % 0.00 in /  0 mm 144 W/m2
11:16 44.4 °F /  6.9 °C 30.1 °F /  -1.1 °C 29.95 in /  1014.1 hPa NW 9.0 mph /  14.5 km/h 19.0 mph /  30.6 km/h 57 % 0.00 in /  0 mm 121 W/m2
11:21 44.2 °F /  6.8 °C 29.5 °F /  -1.4 °C 29.95 in /  1014.1 hPa NW 10.0 mph /  16.1 km/h 19.0 mph /  30.6 km/h 56 % 0.00 in /  0 mm 155 W/m2
11:26 43.9 °F /  6.6 °C 29.2 °F /  -1.6 °C 29.95 in /  1014.1 hPa NW 10.0 mph /  16.1 km/h 22.0 mph /  35.4 km/h 56 % 0.00 in /  0 mm 190 W/m2
11:31 43.9 °F /  6.6 °C 29.2 °F /  -1.6 °C 29.95 in /  1014.1 hPa NW 10.0 mph /  16.1 km/h 22.0 mph /  35.4 km/h 56 % 0.00 in /  0 mm 290 W/m2
11:36 44.2 °F /  6.8 °C 29.1 °F /  -1.6 °C 29.94 in /  1013.8 hPa NW 10.0 mph /  16.1 km/h 18.0 mph /  29 km/h 55 % 0.00 in /  0 mm 392 W/m2
11:41 44.8 °F /  7.1 °C 29.6 °F /  -1.3 °C 29.94 in /  1013.8 hPa NW 9.0 mph /  14.5 km/h 18.0 mph /  29 km/h 55 % 0.00 in /  0 mm 297 W/m2
11:46 45.1 °F /  7.3 °C 29.9 °F /  -1.2 °C 29.94 in /  1013.8 hPa NW 7.0 mph /  11.3 km/h 14.0 mph /  22.5 km/h 55 % 0.00 in /  0 mm 313 W/m2
11:51 45.3 °F /  7.4 °C 29.6 °F /  -1.3 °C 29.94 in /  1013.8 hPa NW 7.0 mph /  11.3 km/h 14.0 mph /  22.5 km/h 54 % 0.00 in /  0 mm 246 W/m2
11:56 45.7 °F /  7.6 °C 30.4 °F /  -0.9 °C 29.94 in /  1013.8 hPa NW 9.0 mph /  14.5 km/h 18.0 mph /  29 km/h 55 % 0.00 in /  0 mm 239 W/m2
12:01 45.3 °F /  7.4 °C 30.1 °F /  -1.1 °C 29.95 in /  1014.1 hPa NW 10.0 mph /  16.1 km/h 21.0 mph /  33.8 km/h 55 % 0.00 in /  0 mm 214 W/m2
12:06 45.1 °F /  7.3 °C 30.8 °F /  -0.7 °C 29.95 in /  1014.1 hPa NW 10.0 mph /  16.1 km/h 21.0 mph /  33.8 km/h 57 % 0.00 in /  0 mm 186 W/m2
12:11 45.0 °F /  7.2 °C 30.6 °F /  -0.8 °C 29.95 in /  1014.1 hPa NW 10.0 mph /  16.1 km/h 20.0 mph /  32.2 km/h 57 % 0.00 in /  0 mm 165 W/m2
12:16 44.6 °F /  7 °C 31.1 °F /  -0.5 °C 29.95 in /  1014.1 hPa NW 9.0 mph /  14.5 km/h 19.0 mph /  30.6 km/h 59 % 0.00 in /  0 mm 167 W/m2
12:21 44.4 °F /  6.9 °C 31.8 °F /  -0.1 °C 29.95 in /  1014.1 hPa NW 9.0 mph /  14.5 km/h 16.0 mph /  25.7 km/h 61 % 0.00 in /  0 mm 225 W/m2
12:26 44.2 °F /  6.8 °C 31.6 °F /  -0.2 °C 29.95 in /  1014.1 hPa NW 10.0 mph /  16.1 km/h 19.0 mph /  30.6 km/h 61 % 0.00 in /  0 mm 276 W/m2
12:31 44.4 °F /  6.9 °C 31.8 °F /  -0.1 °C 29.95 in /  1014.1 hPa NW 9.0 mph /  14.5 km/h 19.0 mph /  30.6 km/h 61 % 0.00 in /  0 mm 338 W/m2
12:36 45.0 °F /  7.2 °C 31.5 °F /  -0.3 °C 29.95 in /  1014.1 hPa NW 9.0 mph /  14.5 km/h 16.0 mph /  25.7 km/h 59 % 0.00 in /  0 mm 397 W/m2
12:41 45.3 °F /  7.4 °C 31.8 °F /  -0.1 °C 29.94 in /  1013.8 hPa NW 10.0 mph /  16.1 km/h 16.0 mph /  25.7 km/h 59 % 0.00 in /  0 mm 327 W/m2
12:46 45.7 °F /  7.6 °C 32.6 °F /  0.3 °C 29.94 in /  1013.8 hPa NW 9.0 mph /  14.5 km/h 18.0 mph /  29 km/h 60 % 0.00 in /  0 mm 281 W/m2
12:51 45.9 °F /  7.7 °C 32.7 °F /  0.4 °C 29.94 in /  1013.8 hPa WNW 9.0 mph /  14.5 km/h 18.0 mph /  29 km/h 60 % 0.00 in /  0 mm 301 W/m2
12:56 45.9 °F /  7.7 °C 32.7 °F /  0.4 °C 29.94 in /  1013.8 hPa WNW 9.0 mph /  14.5 km/h 16.0 mph /  25.7 km/h 60 % 0.00 in /  0 mm 272 W/m2
13:01 46.0 °F /  7.8 °C 32.1 °F /  0.1 °C 29.94 in /  1013.8 hPa NW 8.0 mph /  12.9 km/h 16.0 mph /  25.7 km/h 58 % 0.00 in /  0 mm 295 W/m2
13:06 46.2 °F /  7.9 °C 32.7 °F /  0.4 °C 29.94 in /  1013.8 hPa NW 8.0 mph /  12.9 km/h 18.0 mph /  29 km/h 59 % 0.00 in /  0 mm 462 W/m2
13:16 46.4 °F /  8 °C 33.7 °F /  0.9 °C 29.95 in /  1014.1 hPa NW 8.0 mph /  12.9 km/h 22.0 mph /  35.4 km/h 61 % 0.00 in /  0 mm 213 W/m2
13:22 45.9 °F /  7.7 °C 34.4 °F /  1.3 °C 29.94 in /  1013.8 hPa NW 10.0 mph /  16.1 km/h 22.0 mph /  35.4 km/h 64 % 0.00 in /  0 mm 494 W/m2
13:27 46.0 °F /  7.8 °C 34.1 °F /  1.2 °C 29.94 in /  1013.8 hPa NW 9.0 mph /  14.5 km/h 18.0 mph /  29 km/h 63 % 0.00 in /  0 mm 483 W/m2
13:32 46.9 °F /  8.3 °C 35.4 °F /  1.9 °C 29.94 in /  1013.8 hPa NW 10.0 mph /  16.1 km/h 18.0 mph /  29 km/h 64 % 0.00 in /  0 mm 399 W/m2
13:37 47.3 °F /  8.5 °C 34.1 °F /  1.2 °C 29.94 in /  1013.8 hPa NW 10.0 mph /  16.1 km/h 18.0 mph /  29 km/h 60 % 0.00 in /  0 mm 411 W/m2
13:42 47.3 °F /  8.5 °C 34.1 °F /  1.2 °C 29.94 in /  1013.8 hPa NW 10.0 mph /  16.1 km/h 20.0 mph /  32.2 km/h 60 % 0.00 in /  0 mm 258 W/m2
13:47 46.9 °F /  8.3 °C 34.2 °F /  1.2 °C 29.94 in /  1013.8 hPa NW 9.0 mph /  14.5 km/h 20.0 mph /  32.2 km/h 61 % 0.00 in /  0 mm 135 W/m2
13:52 46.6 °F /  8.1 °C 34.7 °F /  1.5 °C 29.94 in /  1013.8 hPa NW 7.0 mph /  11.3 km/h 15.0 mph /  24.1 km/h 63 % 0.00 in /  0 mm 299 W/m2
13:57 46.4 °F /  8 °C 34.1 °F /  1.2 °C 29.94 in /  1013.8 hPa NW 6.0 mph /  9.7 km/h 13.0 mph /  20.9 km/h 62 % 0.00 in /  0 mm 506 W/m2
14:02 46.8 °F /  8.2 °C 34.4 °F /  1.3 °C 29.93 in /  1013.4 hPa NW 6.0 mph /  9.7 km/h 13.0 mph /  20.9 km/h 62 % 0.00 in /  0 mm 352 W/m2
14:07 47.3 °F /  8.5 °C 34.5 °F /  1.4 °C 29.94 in /  1013.8 hPa NW 7.0 mph /  11.3 km/h 14.0 mph /  22.5 km/h 61 % 0.00 in /  0 mm 223 W/m2
14:12 47.1 °F /  8.4 °C 36.0 °F /  2.2 °C 29.93 in /  1013.4 hPa NW 8.0 mph /  12.9 km/h 15.0 mph /  24.1 km/h 65 % 0.00 in /  0 mm 278 W/m2
14:17 47.5 °F /  8.6 °C 37.1 °F /  2.8 °C 29.93 in /  1013.4 hPa NW 8.0 mph /  12.9 km/h 18.0 mph /  29 km/h 67 % 0.00 in /  0 mm 921 W/m2
14:22 48.4 °F /  9.1 °C 36.0 °F /  2.2 °C 29.94 in /  1013.8 hPa NW 8.0 mph /  12.9 km/h 18.0 mph /  29 km/h 62 % 0.00 in /  0 mm 925 W/m2
14:27 49.3 °F /  9.6 °C 34.2 °F /  1.2 °C 29.94 in /  1013.8 hPa NW 9.0 mph /  14.5 km/h 16.0 mph /  25.7 km/h 56 % 0.00 in /  0 mm 264 W/m2
14:32 49.1 °F /  9.5 °C 34.9 °F /  1.6 °C 29.94 in /  1013.8 hPa NW 9.0 mph /  14.5 km/h 16.0 mph /  25.7 km/h 58 % 0.00 in /  0 mm 206 W/m2
14:37 48.4 °F /  9.1 °C 35.1 °F /  1.7 °C 29.94 in /  1013.8 hPa WNW 9.0 mph /  14.5 km/h 18.0 mph /  29 km/h 60 % 0.00 in /  0 mm 195 W/m2
14:42 47.5 °F /  8.6 °C 36.3 °F /  2.4 °C 29.94 in /  1013.8 hPa WNW 12.0 mph /  19.3 km/h 26.0 mph /  41.8 km/h 65 % 0.00 in /  0 mm 176 W/m2
14:47 46.0 °F /  7.8 °C 36.8 °F /  2.7 °C 29.94 in /  1013.8 hPa WNW 12.0 mph /  19.3 km/h 26.0 mph /  41.8 km/h 70 % 0.00 in /  0 mm 868 W/m2
14:52 46.0 °F /  7.8 °C 37.9 °F /  3.3 °C 29.94 in /  1013.8 hPa WNW 10.0 mph /  16.1 km/h 18.0 mph /  29 km/h 73 % 0.00 in /  0 mm 939 W/m2
14:57 46.4 °F /  8 °C 37.1 °F /  2.8 °C 29.94 in /  1013.8 hPa WNW 9.0 mph /  14.5 km/h 14.0 mph /  22.5 km/h 70 % 0.00 in /  0 mm 121 W/m2
15:02 46.2 °F /  7.9 °C 38.0 °F /  3.3 °C 29.94 in /  1013.8 hPa WNW 9.0 mph /  14.5 km/h 14.0 mph /  22.5 km/h 73 % 0.01 in /  0.25 mm 123 W/m2
15:07 45.7 °F /  7.6 °C 37.9 °F /  3.3 °C 29.93 in /  1013.4 hPa WNW 7.0 mph /  11.3 km/h 13.0 mph /  20.9 km/h 74 % 0.01 in /  0.25 mm 253 W/m2
15:12 45.7 °F /  7.6 °C 38.9 °F /  3.8 °C 29.94 in /  1013.8 hPa WNW 7.0 mph /  11.3 km/h 12.0 mph /  19.3 km/h 77 % 0.01 in /  0.25 mm 984 W/m2
15:17 45.9 °F /  7.7 °C 39.1 °F /  3.9 °C 29.93 in /  1013.4 hPa WNW 6.0 mph /  9.7 km/h 12.0 mph /  19.3 km/h 77 % 0.01 in /  0.25 mm 156 W/m2
15:22 46.0 °F /  7.8 °C 38.6 °F /  3.7 °C 29.95 in /  1014.1 hPa WNW 6.0 mph /  9.7 km/h 10.0 mph /  16.1 km/h 75 % 0.01 in /  0.25 mm 32 W/m2
15:27 45.7 °F /  7.6 °C 37.9 °F /  3.3 °C 29.95 in /  1014.1 hPa NW 6.0 mph /  9.7 km/h 14.0 mph /  22.5 km/h 74 % 0.01 in /  0.25 mm 26 W/m2
15:32 44.8 °F /  7.1 °C 35.9 °F /  2.2 °C 29.95 in /  1014.1 hPa NNW 6.0 mph /  9.7 km/h 14.0 mph /  22.5 km/h 71 % 0.02 in /  0.51 mm 60 W/m2
15:42 43.0 °F /  6.1 °C 35.9 °F /  2.2 °C 29.96 in /  1014.4 hPa North 11.0 mph /  17.7 km/h 22.0 mph /  35.4 km/h 76 % 0.02 in /  0.51 mm 123 W/m2
15:47 42.4 °F /  5.8 °C 36.4 °F /  2.4 °C 29.96 in /  1014.4 hPa North 11.0 mph /  17.7 km/h 22.0 mph /  35.4 km/h 79 % 0.02 in /  0.51 mm 98 W/m2
15:52 42.3 °F /  5.7 °C 36.2 °F /  2.3 °C 29.96 in /  1014.4 hPa North 7.0 mph /  11.3 km/h 19.0 mph /  30.6 km/h 79 % 0.02 in /  0.51 mm 72 W/m2
15:57 41.9 °F /  5.5 °C 35.2 °F /  1.8 °C 29.96 in /  1014.4 hPa NNE 6.0 mph /  9.7 km/h 13.0 mph /  20.9 km/h 77 % 0.02 in /  0.51 mm 105 W/m2
16:02 41.7 °F /  5.4 °C 35.0 °F /  1.7 °C 29.96 in /  1014.4 hPa NNE 5.0 mph /  8 km/h 12.0 mph /  19.3 km/h 77 % 0.01 in /  0.25 mm 144 W/m2
16:07 41.7 °F /  5.4 °C 35.0 °F /  1.7 °C 29.95 in /  1014.1 hPa North 4.0 mph /  6.4 km/h 11.0 mph /  17.7 km/h 77 % 0.01 in /  0.25 mm 188 W/m2
16:12 41.9 °F /  5.5 °C 35.9 °F /  2.2 °C 29.96 in /  1014.4 hPa NNW 4.0 mph /  6.4 km/h 10.0 mph /  16.1 km/h 79 % 0.01 in /  0.25 mm 218 W/m2
16:17 42.3 °F /  5.7 °C 36.5 °F /  2.5 °C 29.96 in /  1014.4 hPa NW 3.0 mph /  4.8 km/h 8.0 mph /  12.9 km/h 80 % 0.01 in /  0.25 mm 253 W/m2
16:22 42.6 °F /  5.9 °C 37.2 °F /  2.9 °C 29.96 in /  1014.4 hPa WNW 4.0 mph /  6.4 km/h 9.0 mph /  14.5 km/h 81 % 0.01 in /  0.25 mm 316 W/m2
16:27 43.2 °F /  6.2 °C 37.7 °F /  3.2 °C 29.96 in /  1014.4 hPa WNW 5.0 mph /  8 km/h 9.0 mph /  14.5 km/h 81 % 0.01 in /  0.25 mm 628 W/m2
16:33 44.1 °F /  6.7 °C 38.6 °F /  3.7 °C 29.96 in /  1014.4 hPa NW 5.0 mph /  8 km/h 9.0 mph /  14.5 km/h 81 % 0.00 in /  0 mm 668 W/m2
16:38 45.0 °F /  7.2 °C 38.5 °F /  3.6 °C 29.96 in /  1014.4 hPa NW 5.0 mph /  8 km/h 11.0 mph /  17.7 km/h 78 % 0.00 in /  0 mm 670 W/m2
16:43 45.7 °F /  7.6 °C 38.5 °F /  3.6 °C 29.96 in /  1014.4 hPa NW 6.0 mph /  9.7 km/h 12.0 mph /  19.3 km/h 76 % 0.00 in /  0 mm 193 W/m2
16:48 45.7 °F /  7.6 °C 37.9 °F /  3.3 °C 29.96 in /  1014.4 hPa NW 5.0 mph /  8 km/h 12.0 mph /  19.3 km/h 74 % 0.00 in /  0 mm 32 W/m2
16:53 45.1 °F /  7.3 °C 37.0 °F /  2.8 °C 29.96 in /  1014.4 hPa North 5.0 mph /  8 km/h 21.0 mph /  33.8 km/h 73 % 0.00 in /  0 mm 39 W/m2
17:03 43.9 °F /  6.6 °C 35.4 °F /  1.9 °C 29.96 in /  1014.4 hPa NNW 6.0 mph /  9.7 km/h 14.0 mph /  22.5 km/h 72 % 0.00 in /  0 mm 116 W/m2
17:08 43.7 °F /  6.5 °C 35.6 °F /  2 °C 29.96 in /  1014.4 hPa NNW 4.0 mph /  6.4 km/h 10.0 mph /  16.1 km/h 73 % 0.00 in /  0 mm 172 W/m2
17:13 43.7 °F /  6.5 °C 35.3 °F /  1.8 °C 29.96 in /  1014.4 hPa NNW 3.0 mph /  4.8 km/h 8.0 mph /  12.9 km/h 72 % 0.00 in /  0 mm 163 W/m2
17:18 43.9 °F /  6.6 °C 35.4 °F /  1.9 °C 29.96 in /  1014.4 hPa NNW 4.0 mph /  6.4 km/h 10.0 mph /  16.1 km/h 72 % 0.00 in /  0 mm 83 W/m2
17:23 43.9 °F /  6.6 °C 35.8 °F /  2.1 °C 29.97 in /  1014.8 hPa NNW 4.0 mph /  6.4 km/h 11.0 mph /  17.7 km/h 73 % 0.00 in /  0 mm 83 W/m2
17:28 43.7 °F /  6.5 °C 35.6 °F /  2 °C 29.96 in /  1014.4 hPa NNW 6.0 mph /  9.7 km/h 15.0 mph /  24.1 km/h 73 % 0.00 in /  0 mm 63 W/m2
17:33 43.5 °F /  6.4 °C 35.8 °F /  2.1 °C 29.96 in /  1014.4 hPa NNW 7.0 mph /  11.3 km/h 15.0 mph /  24.1 km/h 74 % 0.00 in /  0 mm 114 W/m2
17:38 43.3 °F /  6.3 °C 35.6 °F /  2 °C 29.96 in /  1014.4 hPa NW 6.0 mph /  9.7 km/h 14.0 mph /  22.5 km/h 74 % 0.00 in /  0 mm 155 W/m2
17:43 43.3 °F /  6.3 °C 35.6 °F /  2 °C 29.96 in /  1014.4 hPa NW 5.0 mph /  8 km/h 14.0 mph /  22.5 km/h 74 % 0.00 in /  0 mm 383 W/m2
17:48 44.1 °F /  6.7 °C 36.0 °F /  2.2 °C 29.96 in /  1014.4 hPa NW 5.0 mph /  8 km/h 10.0 mph /  16.1 km/h 73 % 0.00 in /  0 mm 387 W/m2
17:53 44.6 °F /  7 °C 36.1 °F /  2.3 °C 29.96 in /  1014.4 hPa NNW 5.0 mph /  8 km/h 11.0 mph /  17.7 km/h 72 % 0.00 in /  0 mm 359 W/m2
17:58 45.3 °F /  7.4 °C 36.5 °F /  2.5 °C 29.96 in /  1014.4 hPa NNW 5.0 mph /  8 km/h 11.0 mph /  17.7 km/h 71 % 0.00 in /  0 mm 343 W/m2
18:03 45.5 °F /  7.5 °C 35.5 °F /  1.9 °C 29.96 in /  1014.4 hPa NNW 5.0 mph /  8 km/h 12.0 mph /  19.3 km/h 68 % 0.00 in /  0 mm 60 W/m2
18:08 45.3 °F /  7.4 °C 35.7 °F /  2.1 °C 29.96 in /  1014.4 hPa NNW 5.0 mph /  8 km/h 15.0 mph /  24.1 km/h 69 % 0.00 in /  0 mm 60 W/m2
18:13 45.0 °F /  7.2 °C 35.4 °F /  1.9 °C 29.96 in /  1014.4 hPa NNW 5.0 mph /  8 km/h 15.0 mph /  24.1 km/h 69 % 0.00 in /  0 mm 70 W/m2
18:18 44.8 °F /  7.1 °C 35.9 °F /  2.2 °C 29.97 in /  1014.8 hPa NW 6.0 mph /  9.7 km/h 12.0 mph /  19.3 km/h 71 % 0.00 in /  0 mm 72 W/m2
18:23 44.4 °F /  6.9 °C 36.0 °F /  2.2 °C 29.97 in /  1014.8 hPa NW 7.0 mph /  11.3 km/h 11.0 mph /  17.7 km/h 72 % 0.00 in /  0 mm 63 W/m2
18:28 44.4 °F /  6.9 °C 36.6 °F /  2.6 °C 29.96 in /  1014.4 hPa NW 5.0 mph /  8 km/h 11.0 mph /  17.7 km/h 74 % 0.00 in /  0 mm 253 W/m2
18:29 44.4 °F /  6.9 °C 36.6 °F /  2.6 °C 29.96 in /  1014.4 hPa NW 5.0 mph /  8 km/h 11.0 mph /  17.7 km/h 74 % 0.00 in /  0 mm 253 W/m2
18:34 45.0 °F /  7.2 °C 36.5 °F /  2.5 °C 29.96 in /  1014.4 hPa NNW 7.0 mph /  11.3 km/h 13.0 mph /  20.9 km/h 72 % 0.00 in /  0 mm 232 W/m2
18:39 45.5 °F /  7.5 °C 36.6 °F /  2.6 °C 29.97 in /  1014.8 hPa NNW 8.0 mph /  12.9 km/h 15.0 mph /  24.1 km/h 71 % 0.00 in /  0 mm 218 W/m2
18:44 45.7 °F /  7.6 °C 36.1 °F /  2.3 °C 29.97 in /  1014.8 hPa NNW 7.0 mph /  11.3 km/h 15.0 mph /  24.1 km/h 69 % 0.00 in /  0 mm 109 W/m2
18:49 45.7 °F /  7.6 °C 36.5 °F /  2.5 °C 29.97 in /  1014.8 hPa NNW 5.0 mph /  8 km/h 14.0 mph /  22.5 km/h 70 % 0.00 in /  0 mm 100 W/m2
18:54 45.3 °F /  7.4 °C 35.7 °F /  2.1 °C 29.97 in /  1014.8 hPa North 4.0 mph /  6.4 km/h 12.0 mph /  19.3 km/h 69 % 0.00 in /  0 mm 60 W/m2
18:59 45.3 °F /  7.4 °C 35.4 °F /  1.9 °C 29.97 in /  1014.8 hPa North 7.0 mph /  11.3 km/h 14.0 mph /  22.5 km/h 68 % 0.00 in /  0 mm 120 W/m2
19:04 45.3 °F /  7.4 °C 35.0 °F /  1.7 °C 29.97 in /  1014.8 hPa North 7.0 mph /  11.3 km/h 20.0 mph /  32.2 km/h 67 % 0.00 in /  0 mm 77 W/m2
19:09 45.1 °F /  7.3 °C 34.1 °F /  1.2 °C 29.97 in /  1014.8 hPa North 6.0 mph /  9.7 km/h 20.0 mph /  32.2 km/h 65 % 0.00 in /  0 mm 46 W/m2
19:14 45.0 °F /  7.2 °C 33.9 °F /  1.1 °C 29.97 in /  1014.8 hPa NNE 7.0 mph /  11.3 km/h 20.0 mph /  32.2 km/h 65 % 0.00 in /  0 mm 28 W/m2
19:19 44.6 °F /  7 °C 33.6 °F /  0.9 °C 29.97 in /  1014.8 hPa NNE 7.0 mph /  11.3 km/h 20.0 mph /  32.2 km/h 65 % 0.00 in /  0 mm 23 W/m2
19:24 44.4 °F /  6.9 °C 33.8 °F /  1 °C 29.98 in /  1015.1 hPa North 6.0 mph /  9.7 km/h 16.0 mph /  25.7 km/h 66 % 0.00 in /  0 mm 33 W/m2
19:29 44.2 °F /  6.8 °C 33.6 °F /  0.9 °C 29.98 in /  1015.1 hPa North 6.0 mph /  9.7 km/h 16.0 mph /  25.7 km/h 66 % 0.00 in /  0 mm 47 W/m2
19:34 44.2 °F /  6.8 °C 34.0 °F /  1.1 °C 29.98 in /  1015.1 hPa North 6.0 mph /  9.7 km/h 16.0 mph /  25.7 km/h 67 % 0.00 in /  0 mm 79 W/m2
19:39 44.2 °F /  6.8 °C 33.6 °F /  0.9 °C 29.99 in /  1015.5 hPa North 8.0 mph /  12.9 km/h 21.0 mph /  33.8 km/h 66 % 0.00 in /  0 mm 70 W/m2
19:44 44.1 °F /  6.7 °C 34.2 °F /  1.2 °C 29.99 in /  1015.5 hPa NNE 9.0 mph /  14.5 km/h 21.0 mph /  33.8 km/h 68 % 0.00 in /  0 mm 39 W/m2
19:48 43.3 °F /  6.3 °C 34.2 °F /  1.2 °C 30.00 in /  1015.8 hPa NE 8.0 mph /  12.9 km/h 20.0 mph /  32.2 km/h 70 % 0.00 in /  0 mm 56 W/m2
19:53 42.6 °F /  5.9 °C 34.2 °F /  1.2 °C 30.00 in /  1015.8 hPa NE 6.0 mph /  9.7 km/h 18.0 mph /  29 km/h 72 % 0.00 in /  0 mm 28 W/m2
19:58 42.1 °F /  5.6 °C 34.0 °F /  1.1 °C 30.00 in /  1015.8 hPa NE 4.0 mph /  6.4 km/h 12.0 mph /  19.3 km/h 73 % 0.00 in /  0 mm 16 W/m2
20:03 41.7 °F /  5.4 °C 34.4 °F /  1.3 °C 30.00 in /  1015.8 hPa NE 3.0 mph /  4.8 km/h 10.0 mph /  16.1 km/h 75 % 0.00 in /  0 mm 12 W/m2
20:08 41.5 °F /  5.3 °C 34.5 °F /  1.4 °C 30.00 in /  1015.8 hPa NNE 5.0 mph /  8 km/h 10.0 mph /  16.1 km/h 76 % 0.00 in /  0 mm 9 W/m2
20:13 41.4 °F /  5.2 °C 34.7 °F /  1.5 °C 30.00 in /  1015.8 hPa NNE 5.0 mph /  8 km/h 10.0 mph /  16.1 km/h 77 % 0.00 in /  0 mm 5 W/m2
20:18 41.4 °F /  5.2 °C 34.7 °F /  1.5 °C 30.00 in /  1015.8 hPa NNE 5.0 mph /  8 km/h 12.0 mph /  19.3 km/h 77 % 0.00 in /  0 mm 5 W/m2
20:23 41.4 °F /  5.2 °C 35.0 °F /  1.7 °C 30.00 in /  1015.8 hPa NNE 5.0 mph /  8 km/h 12.0 mph /  19.3 km/h 78 % 0.00 in /  0 mm 0 W/m2
20:28 41.2 °F /  5.1 °C 35.2 °F /  1.8 °C 30.01 in /  1016.1 hPa North 6.0 mph /  9.7 km/h 20.0 mph /  32.2 km/h 79 % 0.00 in /  0 mm 0 W/m2
20:33 40.8 °F /  4.9 °C 35.4 °F /  1.9 °C 30.01 in /  1016.1 hPa North 8.0 mph /  12.9 km/h 20.0 mph /  32.2 km/h 81 % 0.00 in /  0 mm 0 W/m2
20:38 40.6 °F /  4.8 °C 35.6 °F /  2 °C 30.01 in /  1016.1 hPa North 6.0 mph /  9.7 km/h 14.0 mph /  22.5 km/h 82 % 0.00 in /  0 mm 0 W/m2
20:43 40.3 °F /  4.6 °C 34.9 °F /  1.6 °C 30.02 in /  1016.5 hPa North 6.0 mph /  9.7 km/h 14.0 mph /  22.5 km/h 81 % 0.00 in /  0 mm 0 W/m2
20:48 40.3 °F /  4.6 °C 34.9 °F /  1.6 °C 30.02 in /  1016.5 hPa North 7.0 mph /  11.3 km/h 14.0 mph /  22.5 km/h 81 % 0.00 in /  0 mm 0 W/m2
20:53 39.9 °F /  4.4 °C 34.2 °F /  1.2 °C 30.02 in /  1016.5 hPa North 7.0 mph /  11.3 km/h 14.0 mph /  22.5 km/h 80 % 0.00 in /  0 mm 0 W/m2
20:58 39.9 °F /  4.4 °C 34.2 °F /  1.2 °C 30.02 in /  1016.5 hPa North 7.0 mph /  11.3 km/h 20.0 mph /  32.2 km/h 80 % 0.00 in /  0 mm 0 W/m2
21:03 39.7 °F /  4.3 °C 34.1 °F /  1.2 °C 30.02 in /  1016.5 hPa North 5.0 mph /  8 km/h 20.0 mph /  32.2 km/h 80 % 0.00 in /  0 mm 0 W/m2
21:08 39.7 °F /  4.3 °C 34.1 °F /  1.2 °C 30.02 in /  1016.5 hPa North 4.0 mph /  6.4 km/h 13.0 mph /  20.9 km/h 80 % 0.00 in /  0 mm 0 W/m2
21:13 39.6 °F /  4.2 °C 33.9 °F /  1.1 °C 30.03 in /  1016.8 hPa North 5.0 mph /  8 km/h 13.0 mph /  20.9 km/h 80 % 0.00 in /  0 mm 0 W/m2
21:18 39.6 °F /  4.2 °C 33.9 °F /  1.1 °C 30.03 in /  1016.8 hPa North 6.0 mph /  9.7 km/h 11.0 mph /  17.7 km/h 80 % 0.00 in /  0 mm 0 W/m2
21:23 39.6 °F /  4.2 °C 34.2 °F /  1.2 °C 30.03 in /  1016.8 hPa North 6.0 mph /  9.7 km/h 11.0 mph /  17.7 km/h 81 % 0.00 in /  0 mm 0 W/m2
21:28 39.6 °F /  4.2 °C 34.2 °F /  1.2 °C 30.03 in /  1016.8 hPa North 5.0 mph /  8 km/h 10.0 mph /  16.1 km/h 81 % 0.00 in /  0 mm 0 W/m2
21:33 39.6 °F /  4.2 °C 34.2 °F /  1.2 °C 30.03 in /  1016.8 hPa NNW 3.0 mph /  4.8 km/h 9.0 mph /  14.5 km/h 81 % 0.00 in /  0 mm 0 W/m2
21:38 39.6 °F /  4.2 °C 34.5 °F /  1.4 °C 30.03 in /  1016.8 hPa NW 2.0 mph /  3.2 km/h 7.0 mph /  11.3 km/h 82 % 0.00 in /  0 mm 0 W/m2
21:43 39.6 °F /  4.2 °C 34.5 °F /  1.4 °C 30.03 in /  1016.8 hPa NW 3.0 mph /  4.8 km/h 8.0 mph /  12.9 km/h 82 % 0.00 in /  0 mm 0 W/m2
21:48 39.6 °F /  4.2 °C 34.5 °F /  1.4 °C 30.03 in /  1016.8 hPa NW 3.0 mph /  4.8 km/h 8.0 mph /  12.9 km/h 82 % 0.00 in /  0 mm 0 W/m2
21:53 39.6 °F /  4.2 °C 34.5 °F /  1.4 °C 30.03 in /  1016.8 hPa NW 2.0 mph /  3.2 km/h 6.0 mph /  9.7 km/h 82 % 0.00 in /  0 mm 0 W/m2
21:58 39.6 °F /  4.2 °C 34.5 °F /  1.4 °C 30.03 in /  1016.8 hPa NW 3.0 mph /  4.8 km/h 10.0 mph /  16.1 km/h 82 % 0.00 in /  0 mm 0 W/m2
22:03 39.7 °F /  4.3 °C 34.4 °F /  1.3 °C 30.03 in /  1016.8 hPa NW 5.0 mph /  8 km/h 14.0 mph /  22.5 km/h 81 % 0.00 in /  0 mm 0 W/m2
22:08 39.7 °F /  4.3 °C 34.4 °F /  1.3 °C 30.03 in /  1016.8 hPa NW 5.0 mph /  8 km/h 14.0 mph /  22.5 km/h 81 % 0.00 in /  0 mm 0 W/m2
22:13 39.7 °F /  4.3 °C 34.4 °F /  1.3 °C 30.03 in /  1016.8 hPa NW 7.0 mph /  11.3 km/h 15.0 mph /  24.1 km/h 81 % 0.00 in /  0 mm 0 W/m2
22:19 39.7 °F /  4.3 °C 34.4 °F /  1.3 °C 30.03 in /  1016.8 hPa NNW 8.0 mph /  12.9 km/h 15.0 mph /  24.1 km/h 81 % 0.00 in /  0 mm 0 W/m2
22:23 39.9 °F /  4.4 °C 34.6 °F /  1.4 °C 30.03 in /  1016.8 hPa North 9.0 mph /  14.5 km/h 21.0 mph /  33.8 km/h 81 % 0.00 in /  0 mm 0 W/m2
22:28 39.9 °F /  4.4 °C 34.6 °F /  1.4 °C 30.03 in /  1016.8 hPa North 9.0 mph /  14.5 km/h 21.0 mph /  33.8 km/h 81 % 0.00 in /  0 mm 0 W/m2
22:33 39.9 °F /  4.4 °C 34.6 °F /  1.4 °C 30.03 in /  1016.8 hPa North 7.0 mph /  11.3 km/h 19.0 mph /  30.6 km/h 81 % 0.00 in /  0 mm 0 W/m2
22:39 39.9 °F /  4.4 °C 34.9 °F /  1.6 °C 30.03 in /  1016.8 hPa North 7.0 mph /  11.3 km/h 21.0 mph /  33.8 km/h 82 % 0.00 in /  0 mm 0 W/m2
22:43 39.7 °F /  4.3 °C 34.7 °F /  1.5 °C 30.03 in /  1016.8 hPa North 7.0 mph /  11.3 km/h 21.0 mph /  33.8 km/h 82 % 0.00 in /  0 mm 0 W/m2
22:49 39.7 °F /  4.3 °C 34.7 °F /  1.5 °C 30.04 in /  1017.2 hPa NNW 6.0 mph /  9.7 km/h 20.0 mph /  32.2 km/h 82 % 0.00 in /  0 mm 0 W/m2
22:54 39.7 °F /  4.3 °C 34.7 °F /  1.5 °C 30.04 in /  1017.2 hPa NNW 6.0 mph /  9.7 km/h 14.0 mph /  22.5 km/h 82 % 0.00 in /  0 mm 0 W/m2
22:59 39.6 °F /  4.2 °C 34.8 °F /  1.6 °C 30.03 in /  1016.8 hPa NNW 7.0 mph /  11.3 km/h 14.0 mph /  22.5 km/h 83 % 0.00 in /  0 mm 0 W/m2
23:04 39.6 °F /  4.2 °C 34.8 °F /  1.6 °C 30.03 in /  1016.8 hPa NNW 7.0 mph /  11.3 km/h 15.0 mph /  24.1 km/h 83 % 0.00 in /  0 mm 0 W/m2
23:09 39.6 °F /  4.2 °C 34.8 °F /  1.6 °C 30.03 in /  1016.8 hPa NNW 6.0 mph /  9.7 km/h 15.0 mph /  24.1 km/h 83 % 0.00 in /  0 mm 0 W/m2
23:14 39.6 °F /  4.2 °C 34.8 °F /  1.6 °C 30.03 in /  1016.8 hPa NNW 5.0 mph /  8 km/h 11.0 mph /  17.7 km/h 83 % 0.00 in /  0 mm 0 W/m2
23:19 39.6 °F /  4.2 °C 34.8 °F /  1.6 °C 30.04 in /  1017.2 hPa NNW 6.0 mph /  9.7 km/h 12.0 mph /  19.3 km/h 83 % 0.00 in /  0 mm 0 W/m2
23:24 39.6 °F /  4.2 °C 34.8 °F /  1.6 °C 30.03 in /  1016.8 hPa NNW 6.0 mph /  9.7 km/h 14.0 mph /  22.5 km/h 83 % 0.00 in /  0 mm 0 W/m2
23:29 39.6 °F /  4.2 °C 34.8 °F /  1.6 °C 30.04 in /  1017.2 hPa NNW 6.0 mph /  9.7 km/h 18.0 mph /  29 km/h 83 % 0.00 in /  0 mm 0 W/m2
23:34 39.6 °F /  4.2 °C 34.5 °F /  1.4 °C 30.04 in /  1017.2 hPa NNW 7.0 mph /  11.3 km/h 18.0 mph /  29 km/h 82 % 0.00 in /  0 mm 0 W/m2
23:39 39.6 °F /  4.2 °C 34.5 °F /  1.4 °C 30.04 in /  1017.2 hPa NNW 7.0 mph /  11.3 km/h 14.0 mph /  22.5 km/h 82 % 0.00 in /  0 mm 0 W/m2
23:44 39.6 °F /  4.2 °C 34.5 °F /  1.4 °C 30.04 in /  1017.2 hPa NNW 6.0 mph /  9.7 km/h 15.0 mph /  24.1 km/h 82 % 0.00 in /  0 mm 0 W/m2
23:49 39.6 °F /  4.2 °C 34.5 °F /  1.4 °C 30.04 in /  1017.2 hPa NNW 7.0 mph /  11.3 km/h 16.0 mph /  25.7 km/h 82 % 0.00 in /  0 mm 0 W/m2
23:54 39.6 °F /  4.2 °C 34.5 °F /  1.4 °C 30.04 in /  1017.2 hPa NNW 8.0 mph /  12.9 km/h 18.0 mph /  29 km/h 82 % 0.00 in /  0 mm 0 W/m2
23:59 39.6 °F /  4.2 °C 34.8 °F /  1.6 °C 30.05 in /  1017.5 hPa NNW 8.0 mph /  12.9 km/h 18.0 mph /  29 km/h 83 % 0.00 in /  0 mm 0 W/m2
Delerius-Weather
Compliments of Weather Underground - 2.25 mb

Data updates at regular intervals.